sensor_id;sensor_type;location;lat;lon;timestamp;temperature;humidity
2497;DHT22;1259;48.306;14.374;2023-07-28T00:01:37;18.70;99.90
2497;DHT22;1259;48.306;14.374;2023-07-28T00:04:04;18.60;99.90
2497;DHT22;1259;48.306;14.374;2023-07-28T00:06:34;18.60;99.90
2497;DHT22;1259;48.306;14.374;2023-07-28T00:09:00;18.70;99.90
2497;DHT22;1259;48.306;14.374;2023-07-28T00:11:27;18.70;99.90
2497;DHT22;1259;48.306;14.374;2023-07-28T00:13:53;18.60;99.90
2497;DHT22;1259;48.306;14.374;2023-07-28T00:16:20;18.70;99.90
2497;DHT22;1259;48.306;14.374;2023-07-28T00:18:47;18.70;99.90
2497;DHT22;1259;48.306;14.374;2023-07-28T00:21:13;18.70;99.90
2497;DHT22;1259;48.306;14.374;2023-07-28T00:23:41;18.70;99.90
2497;DHT22;1259;48.306;14.374;2023-07-28T00:26:08;18.70;99.90
2497;DHT22;1259;48.306;14.374;2023-07-28T00:28:35;18.70;99.90
2497;DHT22;1259;48.306;14.374;2023-07-28T00:31:01;18.70;99.90
2497;DHT22;1259;48.306;14.374;2023-07-28T00:33:28;18.70;99.90
2497;DHT22;1259;48.306;14.374;2023-07-28T00:35:55;18.70;99.90
2497;DHT22;1259;48.306;14.374;2023-07-28T00:38:21;18.70;99.90
2497;DHT22;1259;48.306;14.374;2023-07-28T00:40:49;18.50;99.90
2497;DHT22;1259;48.306;14.374;2023-07-28T00:43:16;18.50;99.90
2497;DHT22;1259;48.306;14.374;2023-07-28T00:45:43;18.40;99.90
2497;DHT22;1259;48.306;14.374;2023-07-28T00:48:10;18.30;99.90
2497;DHT22;1259;48.306;14.374;2023-07-28T00:50:38;18.30;99.90
2497;DHT22;1259;48.306;14.374;2023-07-28T00:53:06;18.30;99.90
2497;DHT22;1259;48.306;14.374;2023-07-28T00:55:32;18.30;99.90
2497;DHT22;1259;48.306;14.374;2023-07-28T00:58:00;18.20;99.90
2497;DHT22;1259;48.306;14.374;2023-07-28T01:00:27;18.30;99.90
2497;DHT22;1259;48.306;14.374;2023-07-28T01:02:54;18.20;99.90
2497;DHT22;1259;48.306;14.374;2023-07-28T01:05:20;18.30;99.90
2497;DHT22;1259;48.306;14.374;2023-07-28T01:07:52;18.30;99.90
2497;DHT22;1259;48.306;14.374;2023-07-28T01:10:22;18.20;99.90
2497;DHT22;1259;48.306;14.374;2023-07-28T01:12:49;18.20;99.90
2497;DHT22;1259;48.306;14.374;2023-07-28T01:15:17;18.10;99.90
2497;DHT22;1259;48.306;14.374;2023-07-28T01:17:43;18.20;99.90
2497;DHT22;1259;48.306;14.374;2023-07-28T01:20:10;18.20;99.90
2497;DHT22;1259;48.306;14.374;2023-07-28T01:25:24;18.20;99.90
2497;DHT22;1259;48.306;14.374;2023-07-28T01:27:54;18.10;99.90
2497;DHT22;1259;48.306;14.374;2023-07-28T01:30:22;18.00;99.90
2497;DHT22;1259;48.306;14.374;2023-07-28T01:32:53;17.90;99.90
2497;DHT22;1259;48.306;14.374;2023-07-28T01:35:20;17.90;99.90
2497;DHT22;1259;48.306;14.374;2023-07-28T01:37:46;17.90;99.90
2497;DHT22;1259;48.306;14.374;2023-07-28T01:40:16;17.90;99.90
2497;DHT22;1259;48.306;14.374;2023-07-28T01:42:42;18.00;99.90
2497;DHT22;1259;48.306;14.374;2023-07-28T01:45:10;18.00;99.90
2497;DHT22;1259;48.306;14.374;2023-07-28T01:47:37;18.00;99.90
2497;DHT22;1259;48.306;14.374;2023-07-28T01:50:04;17.90;99.90
2497;DHT22;1259;48.306;14.374;2023-07-28T01:52:31;18.00;99.90
2497;DHT22;1259;48.306;14.374;2023-07-28T01:54:58;18.00;99.90
2497;DHT22;1259;48.306;14.374;2023-07-28T01:57:24;17.90;99.90
2497;DHT22;1259;48.306;14.374;2023-07-28T01:59:52;17.90;99.90
2497;DHT22;1259;48.306;14.374;2023-07-28T02:02:20;17.90;99.90
2497;DHT22;1259;48.306;14.374;2023-07-28T02:04:47;17.90;99.90
2497;DHT22;1259;48.306;14.374;2023-07-28T02:07:13;17.70;99.90
2497;DHT22;1259;48.306;14.374;2023-07-28T02:09:40;17.60;99.90
2497;DHT22;1259;48.306;14.374;2023-07-28T02:12:07;17.70;99.90
2497;DHT22;1259;48.306;14.374;2023-07-28T02:14:33;17.70;99.90
2497;DHT22;1259;48.306;14.374;2023-07-28T02:17:00;17.80;99.90
2497;DHT22;1259;48.306;14.374;2023-07-28T02:19:28;17.90;99.90
2497;DHT22;1259;48.306;14.374;2023-07-28T02:21:55;17.90;99.90
2497;DHT22;1259;48.306;14.374;2023-07-28T02:24:21;18.00;99.90
2497;DHT22;1259;48.306;14.374;2023-07-28T02:26:48;18.10;99.90
2497;DHT22;1259;48.306;14.374;2023-07-28T02:29:15;18.10;99.90
2497;DHT22;1259;48.306;14.374;2023-07-28T02:31:41;18.10;99.90
2497;DHT22;1259;48.306;14.374;2023-07-28T02:34:08;18.10;99.90
2497;DHT22;1259;48.306;14.374;2023-07-28T02:36:36;18.00;99.90
2497;DHT22;1259;48.306;14.374;2023-07-28T02:39:03;18.00;99.90
2497;DHT22;1259;48.306;14.374;2023-07-28T02:41:30;17.90;99.90
2497;DHT22;1259;48.306;14.374;2023-07-28T02:43:57;17.90;99.90
2497;DHT22;1259;48.306;14.374;2023-07-28T02:46:23;17.90;99.90
2497;DHT22;1259;48.306;14.374;2023-07-28T02:48:51;17.90;99.90
2497;DHT22;1259;48.306;14.374;2023-07-28T02:51:18;17.90;99.90
2497;DHT22;1259;48.306;14.374;2023-07-28T02:53:46;17.80;99.90
2497;DHT22;1259;48.306;14.374;2023-07-28T02:56:12;17.80;99.90
2497;DHT22;1259;48.306;14.374;2023-07-28T02:58:39;17.80;99.90
2497;DHT22;1259;48.306;14.374;2023-07-28T03:01:06;17.80;99.90
2497;DHT22;1259;48.306;14.374;2023-07-28T03:03:32;17.80;99.90
2497;DHT22;1259;48.306;14.374;2023-07-28T03:05:59;17.90;99.90
2497;DHT22;1259;48.306;14.374;2023-07-28T03:08:26;17.90;99.90
2497;DHT22;1259;48.306;14.374;2023-07-28T03:10:57;17.80;99.90
2497;DHT22;1259;48.306;14.374;2023-07-28T03:13:23;17.70;99.90
2497;DHT22;1259;48.306;14.374;2023-07-28T03:15:50;17.70;99.90
2497;DHT22;1259;48.306;14.374;2023-07-28T03:18:17;17.80;99.90
2497;DHT22;1259;48.306;14.374;2023-07-28T03:20:45;17.70;99.90
2497;DHT22;1259;48.306;14.374;2023-07-28T03:23:12;17.60;99.90
2497;DHT22;1259;48.306;14.374;2023-07-28T03:25:39;17.60;99.90
2497;DHT22;1259;48.306;14.374;2023-07-28T03:28:07;17.50;99.90
2497;DHT22;1259;48.306;14.374;2023-07-28T03:30:34;17.60;99.90
2497;DHT22;1259;48.306;14.374;2023-07-28T03:33:00;17.60;99.90
2497;DHT22;1259;48.306;14.374;2023-07-28T03:35:27;17.50;99.90
2497;DHT22;1259;48.306;14.374;2023-07-28T03:37:54;17.50;99.90
2497;DHT22;1259;48.306;14.374;2023-07-28T03:40:20;17.50;99.90
2497;DHT22;1259;48.306;14.374;2023-07-28T03:42:47;17.50;99.90
2497;DHT22;1259;48.306;14.374;2023-07-28T03:45:15;17.50;99.90
2497;DHT22;1259;48.306;14.374;2023-07-28T03:47:42;17.40;99.90
2497;DHT22;1259;48.306;14.374;2023-07-28T03:50:09;17.20;99.90
2497;DHT22;1259;48.306;14.374;2023-07-28T03:52:36;17.20;99.90
2497;DHT22;1259;48.306;14.374;2023-07-28T03:55:02;17.20;99.90
2497;DHT22;1259;48.306;14.374;2023-07-28T03:57:29;17.20;99.90
2497;DHT22;1259;48.306;14.374;2023-07-28T03:59:56;17.00;99.90
2497;DHT22;1259;48.306;14.374;2023-07-28T04:02:24;17.00;99.90
2497;DHT22;1259;48.306;14.374;2023-07-28T04:04:53;17.10;99.90
2497;DHT22;1259;48.306;14.374;2023-07-28T04:07:21;17.10;99.90
2497;DHT22;1259;48.306;14.374;2023-07-28T04:09:48;17.00;99.90
2497;DHT22;1259;48.306;14.374;2023-07-28T04:12:14;17.10;99.90
2497;DHT22;1259;48.306;14.374;2023-07-28T04:14:41;17.00;99.90
2497;DHT22;1259;48.306;14.374;2023-07-28T04:17:08;17.10;99.90
2497;DHT22;1259;48.306;14.374;2023-07-28T04:19:36;17.00;99.90
2497;DHT22;1259;48.306;14.374;2023-07-28T04:22:02;17.10;99.90
2497;DHT22;1259;48.306;14.374;2023-07-28T04:24:29;17.20;99.90
2497;DHT22;1259;48.306;14.374;2023-07-28T04:26:56;17.20;99.90
2497;DHT22;1259;48.306;14.374;2023-07-28T04:29:23;17.20;99.90
2497;DHT22;1259;48.306;14.374;2023-07-28T04:31:50;17.30;99.90
2497;DHT22;1259;48.306;14.374;2023-07-28T04:34:17;17.30;99.90
2497;DHT22;1259;48.306;14.374;2023-07-28T04:36:45;17.20;99.90
2497;DHT22;1259;48.306;14.374;2023-07-28T04:39:11;17.20;99.90
2497;DHT22;1259;48.306;14.374;2023-07-28T04:41:38;17.20;99.90
2497;DHT22;1259;48.306;14.374;2023-07-28T04:44:05;17.20;99.90
2497;DHT22;1259;48.306;14.374;2023-07-28T04:46:32;17.10;99.90
2497;DHT22;1259;48.306;14.374;2023-07-28T04:48:58;17.00;99.90
2497;DHT22;1259;48.306;14.374;2023-07-28T04:51:25;17.20;99.90
2497;DHT22;1259;48.306;14.374;2023-07-28T04:53:53;17.20;99.90
2497;DHT22;1259;48.306;14.374;2023-07-28T04:56:20;17.10;99.90
2497;DHT22;1259;48.306;14.374;2023-07-28T04:58:46;17.30;99.90
2497;DHT22;1259;48.306;14.374;2023-07-28T05:01:13;17.30;99.90
2497;DHT22;1259;48.306;14.374;2023-07-28T05:03:39;17.30;99.90
2497;DHT22;1259;48.306;14.374;2023-07-28T05:06:06;17.40;99.90
2497;DHT22;1259;48.306;14.374;2023-07-28T05:08:33;17.40;99.90
2497;DHT22;1259;48.306;14.374;2023-07-28T05:11:01;17.50;99.90
2497;DHT22;1259;48.306;14.374;2023-07-28T05:13:27;17.60;99.90
2497;DHT22;1259;48.306;14.374;2023-07-28T05:15:54;17.60;99.90
2497;DHT22;1259;48.306;14.374;2023-07-28T05:18:21;17.60;99.90
2497;DHT22;1259;48.306;14.374;2023-07-28T05:20:48;17.70;99.90
2497;DHT22;1259;48.306;14.374;2023-07-28T05:23:14;17.70;99.90
2497;DHT22;1259;48.306;14.374;2023-07-28T05:25:41;17.80;99.90
2497;DHT22;1259;48.306;14.374;2023-07-28T05:28:09;17.90;99.90
2497;DHT22;1259;48.306;14.374;2023-07-28T05:30:36;18.00;99.90
2497;DHT22;1259;48.306;14.374;2023-07-28T05:33:02;18.10;99.90
2497;DHT22;1259;48.306;14.374;2023-07-28T05:35:29;18.30;99.90
2497;DHT22;1259;48.306;14.374;2023-07-28T05:37:56;18.00;99.90
2497;DHT22;1259;48.306;14.374;2023-07-28T05:40:23;18.00;99.90
2497;DHT22;1259;48.306;14.374;2023-07-28T05:42:49;18.00;99.90
2497;DHT22;1259;48.306;14.374;2023-07-28T05:45:17;18.00;99.90
2497;DHT22;1259;48.306;14.374;2023-07-28T05:47:44;18.00;99.90
2497;DHT22;1259;48.306;14.374;2023-07-28T05:50:11;18.00;99.90
2497;DHT22;1259;48.306;14.374;2023-07-28T05:52:38;18.00;99.90
2497;DHT22;1259;48.306;14.374;2023-07-28T05:55:05;18.00;99.90
2497;DHT22;1259;48.306;14.374;2023-07-28T05:57:31;18.10;99.90
2497;DHT22;1259;48.306;14.374;2023-07-28T05:59:58;18.10;99.90
2497;DHT22;1259;48.306;14.374;2023-07-28T06:02:26;18.40;99.90
2497;DHT22;1259;48.306;14.374;2023-07-28T06:04:53;18.60;99.90
2497;DHT22;1259;48.306;14.374;2023-07-28T06:07:20;18.50;99.90
2497;DHT22;1259;48.306;14.374;2023-07-28T06:09:46;18.60;99.90
2497;DHT22;1259;48.306;14.374;2023-07-28T06:12:13;18.80;99.90
2497;DHT22;1259;48.306;14.374;2023-07-28T06:14:41;18.80;99.90
2497;DHT22;1259;48.306;14.374;2023-07-28T06:17:08;19.00;99.90
2497;DHT22;1259;48.306;14.374;2023-07-28T06:19:36;19.00;99.90
2497;DHT22;1259;48.306;14.374;2023-07-28T06:22:03;19.20;99.90
2497;DHT22;1259;48.306;14.374;2023-07-28T06:24:29;19.40;99.90
2497;DHT22;1259;48.306;14.374;2023-07-28T06:26:56;19.70;99.90
2497;DHT22;1259;48.306;14.374;2023-07-28T06:29:23;19.70;99.90
2497;DHT22;1259;48.306;14.374;2023-07-28T06:31:49;19.70;99.90
2497;DHT22;1259;48.306;14.374;2023-07-28T06:34:16;19.60;99.90
2497;DHT22;1259;48.306;14.374;2023-07-28T06:36:44;19.90;99.90
2497;DHT22;1259;48.306;14.374;2023-07-28T06:39:11;19.80;99.90
2497;DHT22;1259;48.306;14.374;2023-07-28T06:41:37;19.70;99.90
2497;DHT22;1259;48.306;14.374;2023-07-28T06:44:04;20.10;99.90
2497;DHT22;1259;48.306;14.374;2023-07-28T06:46:33;20.20;99.90
2497;DHT22;1259;48.306;14.374;2023-07-28T06:49:00;20.10;99.90
2497;DHT22;1259;48.306;14.374;2023-07-28T06:51:26;20.10;99.90
2497;DHT22;1259;48.306;14.374;2023-07-28T06:53:54;20.60;99.90
2497;DHT22;1259;48.306;14.374;2023-07-28T06:56:21;20.70;99.90
2497;DHT22;1259;48.306;14.374;2023-07-28T06:58:48;21.00;99.90
2497;DHT22;1259;48.306;14.374;2023-07-28T07:01:15;21.10;99.90
2497;DHT22;1259;48.306;14.374;2023-07-28T07:03:43;21.10;99.90
2497;DHT22;1259;48.306;14.374;2023-07-28T07:06:10;20.80;99.90
2497;DHT22;1259;48.306;14.374;2023-07-28T07:08:36;21.10;99.90
2497;DHT22;1259;48.306;14.374;2023-07-28T07:11:05;21.60;99.90
2497;DHT22;1259;48.306;14.374;2023-07-28T07:13:32;21.80;99.90
2497;DHT22;1259;48.306;14.374;2023-07-28T07:15:58;22.00;99.90
2497;DHT22;1259;48.306;14.374;2023-07-28T07:18:26;22.30;99.90
2497;DHT22;1259;48.306;14.374;2023-07-28T07:20:53;22.40;99.90
2497;DHT22;1259;48.306;14.374;2023-07-28T07:23:19;22.20;99.90
2497;DHT22;1259;48.306;14.374;2023-07-28T07:25:48;22.20;99.90
2497;DHT22;1259;48.306;14.374;2023-07-28T07:28:16;22.40;99.90
2497;DHT22;1259;48.306;14.374;2023-07-28T07:30:43;22.80;99.90
2497;DHT22;1259;48.306;14.374;2023-07-28T07:33:10;23.00;99.90
2497;DHT22;1259;48.306;14.374;2023-07-28T07:35:36;23.00;99.90
2497;DHT22;1259;48.306;14.374;2023-07-28T07:38:04;23.00;99.90
2497;DHT22;1259;48.306;14.374;2023-07-28T07:40:34;23.20;99.90
2497;DHT22;1259;48.306;14.374;2023-07-28T07:43:00;23.40;99.90
2497;DHT22;1259;48.306;14.374;2023-07-28T07:45:30;23.50;99.90
2497;DHT22;1259;48.306;14.374;2023-07-28T07:47:56;23.40;99.90
2497;DHT22;1259;48.306;14.374;2023-07-28T07:50:23;23.70;99.90
2497;DHT22;1259;48.306;14.374;2023-07-28T07:52:50;23.50;99.90
2497;DHT22;1259;48.306;14.374;2023-07-28T07:55:17;23.60;99.90
2497;DHT22;1259;48.306;14.374;2023-07-28T07:57:43;23.50;99.90
2497;DHT22;1259;48.306;14.374;2023-07-28T08:00:10;23.80;99.90
2497;DHT22;1259;48.306;14.374;2023-07-28T08:02:39;23.70;99.90
2497;DHT22;1259;48.306;14.374;2023-07-28T08:05:05;24.20;99.90
2497;DHT22;1259;48.306;14.374;2023-07-28T08:07:33;24.10;99.90
2497;DHT22;1259;48.306;14.374;2023-07-28T08:09:59;24.30;99.90
2497;DHT22;1259;48.306;14.374;2023-07-28T08:12:26;24.30;99.90
2497;DHT22;1259;48.306;14.374;2023-07-28T08:14:53;24.00;99.90
2497;DHT22;1259;48.306;14.374;2023-07-28T08:17:20;24.30;99.90
2497;DHT22;1259;48.306;14.374;2023-07-28T08:19:48;24.10;99.90
2497;DHT22;1259;48.306;14.374;2023-07-28T08:22:15;24.00;99.90
2497;DHT22;1259;48.306;14.374;2023-07-28T08:24:41;24.30;99.90
2497;DHT22;1259;48.306;14.374;2023-07-28T08:27:08;24.00;99.90
2497;DHT22;1259;48.306;14.374;2023-07-28T08:29:35;23.70;99.90
2497;DHT22;1259;48.306;14.374;2023-07-28T08:32:01;23.80;99.90
2497;DHT22;1259;48.306;14.374;2023-07-28T08:34:28;23.80;99.90
2497;DHT22;1259;48.306;14.374;2023-07-28T08:36:56;23.70;99.90
2497;DHT22;1259;48.306;14.374;2023-07-28T08:39:23;23.90;99.90
2497;DHT22;1259;48.306;14.374;2023-07-28T08:41:56;24.20;99.90
2497;DHT22;1259;48.306;14.374;2023-07-28T08:44:23;24.20;99.90
2497;DHT22;1259;48.306;14.374;2023-07-28T08:46:50;24.80;99.90
2497;DHT22;1259;48.306;14.374;2023-07-28T08:49:17;24.60;99.90
2497;DHT22;1259;48.306;14.374;2023-07-28T08:51:48;24.70;99.90
2497;DHT22;1259;48.306;14.374;2023-07-28T08:54:16;24.50;99.90
2497;DHT22;1259;48.306;14.374;2023-07-28T08:56:42;24.10;99.90
2497;DHT22;1259;48.306;14.374;2023-07-28T08:59:09;24.00;99.90
2497;DHT22;1259;48.306;14.374;2023-07-28T09:01:38;24.20;99.90
2497;DHT22;1259;48.306;14.374;2023-07-28T09:04:06;24.30;99.90
2497;DHT22;1259;48.306;14.374;2023-07-28T09:06:36;24.50;99.90
2497;DHT22;1259;48.306;14.374;2023-07-28T09:09:05;24.50;99.90
2497;DHT22;1259;48.306;14.374;2023-07-28T09:11:33;24.50;99.90
2497;DHT22;1259;48.306;14.374;2023-07-28T09:14:00;24.40;99.90
2497;DHT22;1259;48.306;14.374;2023-07-28T09:16:27;24.70;99.90
2497;DHT22;1259;48.306;14.374;2023-07-28T09:19:03;25.10;99.90
2497;DHT22;1259;48.306;14.374;2023-07-28T09:21:30;25.00;99.90
2497;DHT22;1259;48.306;14.374;2023-07-28T09:23:58;24.70;99.90
2497;DHT22;1259;48.306;14.374;2023-07-28T09:26:29;24.70;99.90
2497;DHT22;1259;48.306;14.374;2023-07-28T09:29:10;24.60;99.90
2497;DHT22;1259;48.306;14.374;2023-07-28T09:31:37;24.50;99.90
2497;DHT22;1259;48.306;14.374;2023-07-28T09:34:06;24.40;99.90
2497;DHT22;1259;48.306;14.374;2023-07-28T09:36:34;24.50;99.90
2497;DHT22;1259;48.306;14.374;2023-07-28T09:39:01;24.80;99.90
2497;DHT22;1259;48.306;14.374;2023-07-28T09:41:29;25.00;99.90
2497;DHT22;1259;48.306;14.374;2023-07-28T09:43:56;25.30;99.90
2497;DHT22;1259;48.306;14.374;2023-07-28T09:46:24;25.10;99.90
2497;DHT22;1259;48.306;14.374;2023-07-28T09:48:52;24.80;99.90
2497;DHT22;1259;48.306;14.374;2023-07-28T09:51:20;24.80;99.90
2497;DHT22;1259;48.306;14.374;2023-07-28T09:53:48;25.00;99.90
2497;DHT22;1259;48.306;14.374;2023-07-28T09:56:15;25.50;99.90
2497;DHT22;1259;48.306;14.374;2023-07-28T09:58:44;25.40;99.90
2497;DHT22;1259;48.306;14.374;2023-07-28T10:01:15;25.50;99.90
2497;DHT22;1259;48.306;14.374;2023-07-28T10:03:43;25.70;99.90
2497;DHT22;1259;48.306;14.374;2023-07-28T10:06:11;25.30;99.90
2497;DHT22;1259;48.306;14.374;2023-07-28T10:08:37;25.20;99.90
2497;DHT22;1259;48.306;14.374;2023-07-28T10:11:05;25.20;99.90
2497;DHT22;1259;48.306;14.374;2023-07-28T10:13:39;25.40;99.90
2497;DHT22;1259;48.306;14.374;2023-07-28T10:16:06;25.40;99.90
2497;DHT22;1259;48.306;14.374;2023-07-28T10:18:34;25.10;99.90
2497;DHT22;1259;48.306;14.374;2023-07-28T10:21:04;25.50;99.90
2497;DHT22;1259;48.306;14.374;2023-07-28T10:23:33;25.60;99.90
2497;DHT22;1259;48.306;14.374;2023-07-28T10:26:00;25.90;99.90
2497;DHT22;1259;48.306;14.374;2023-07-28T10:28:31;25.90;99.90
2497;DHT22;1259;48.306;14.374;2023-07-28T10:30:58;25.90;99.90
2497;DHT22;1259;48.306;14.374;2023-07-28T10:33:26;25.90;99.90
2497;DHT22;1259;48.306;14.374;2023-07-28T10:35:53;25.70;99.90
2497;DHT22;1259;48.306;14.374;2023-07-28T10:38:31;25.30;99.90
2497;DHT22;1259;48.306;14.374;2023-07-28T10:41:05;25.60;99.90
2497;DHT22;1259;48.306;14.374;2023-07-28T10:43:32;25.90;99.90
2497;DHT22;1259;48.306;14.374;2023-07-28T10:45:59;26.20;99.90
2497;DHT22;1259;48.306;14.374;2023-07-28T10:48:26;25.90;99.50
2497;DHT22;1259;48.306;14.374;2023-07-28T10:50:52;25.80;99.90
2497;DHT22;1259;48.306;14.374;2023-07-28T10:53:19;25.70;99.90
2497;DHT22;1259;48.306;14.374;2023-07-28T10:55:48;25.90;99.90
2497;DHT22;1259;48.306;14.374;2023-07-28T10:58:14;25.60;99.90
2497;DHT22;1259;48.306;14.374;2023-07-28T11:00:41;25.70;99.90
2497;DHT22;1259;48.306;14.374;2023-07-28T11:03:08;25.60;99.90
2497;DHT22;1259;48.306;14.374;2023-07-28T11:05:34;25.60;99.90
2497;DHT22;1259;48.306;14.374;2023-07-28T11:08:01;25.40;99.90
2497;DHT22;1259;48.306;14.374;2023-07-28T11:10:28;25.50;99.90
2497;DHT22;1259;48.306;14.374;2023-07-28T11:12:58;25.40;99.90
2497;DHT22;1259;48.306;14.374;2023-07-28T11:15:24;25.10;99.90
2497;DHT22;1259;48.306;14.374;2023-07-28T11:17:52;25.10;99.90
2497;DHT22;1259;48.306;14.374;2023-07-28T11:20:19;25.10;99.90
2497;DHT22;1259;48.306;14.374;2023-07-28T11:22:51;24.90;99.90
2497;DHT22;1259;48.306;14.374;2023-07-28T11:25:18;24.80;99.90
2497;DHT22;1259;48.306;14.374;2023-07-28T11:27:46;24.90;99.90
2497;DHT22;1259;48.306;14.374;2023-07-28T11:30:14;24.90;99.90
2497;DHT22;1259;48.306;14.374;2023-07-28T11:32:42;24.90;99.90
2497;DHT22;1259;48.306;14.374;2023-07-28T11:35:10;24.80;99.90
2497;DHT22;1259;48.306;14.374;2023-07-28T11:37:37;24.90;99.90
2497;DHT22;1259;48.306;14.374;2023-07-28T11:40:05;24.80;99.90
2497;DHT22;1259;48.306;14.374;2023-07-28T11:42:33;24.90;99.90
2497;DHT22;1259;48.306;14.374;2023-07-28T11:45:01;24.80;99.90
2497;DHT22;1259;48.306;14.374;2023-07-28T11:47:29;24.80;99.90
2497;DHT22;1259;48.306;14.374;2023-07-28T11:49:56;24.80;99.90
2497;DHT22;1259;48.306;14.374;2023-07-28T11:52:24;24.80;99.90
2497;DHT22;1259;48.306;14.374;2023-07-28T11:54:51;24.60;99.90
2497;DHT22;1259;48.306;14.374;2023-07-28T11:57:18;24.70;99.90
2497;DHT22;1259;48.306;14.374;2023-07-28T11:59:44;24.60;99.90
2497;DHT22;1259;48.306;14.374;2023-07-28T12:02:11;24.70;99.90
2497;DHT22;1259;48.306;14.374;2023-07-28T12:04:40;24.80;99.90
2497;DHT22;1259;48.306;14.374;2023-07-28T12:07:08;25.00;99.90
2497;DHT22;1259;48.306;14.374;2023-07-28T12:09:49;25.00;99.90
2497;DHT22;1259;48.306;14.374;2023-07-28T12:12:17;25.20;99.90
2497;DHT22;1259;48.306;14.374;2023-07-28T12:14:44;25.10;99.90
2497;DHT22;1259;48.306;14.374;2023-07-28T12:17:12;25.10;99.90
2497;DHT22;1259;48.306;14.374;2023-07-28T12:19:41;25.10;99.90
2497;DHT22;1259;48.306;14.374;2023-07-28T12:22:08;25.20;99.90
2497;DHT22;1259;48.306;14.374;2023-07-28T12:24:37;25.20;99.90
2497;DHT22;1259;48.306;14.374;2023-07-28T12:27:04;25.40;99.90
2497;DHT22;1259;48.306;14.374;2023-07-28T12:29:31;25.20;99.90
2497;DHT22;1259;48.306;14.374;2023-07-28T12:31:57;25.20;99.90
2497;DHT22;1259;48.306;14.374;2023-07-28T12:34:24;25.20;99.90
2497;DHT22;1259;48.306;14.374;2023-07-28T12:36:52;25.10;99.90
2497;DHT22;1259;48.306;14.374;2023-07-28T12:39:19;25.00;99.90
2497;DHT22;1259;48.306;14.374;2023-07-28T12:41:46;25.00;99.90
2497;DHT22;1259;48.306;14.374;2023-07-28T12:44:12;24.80;99.90
2497;DHT22;1259;48.306;14.374;2023-07-28T12:46:39;24.90;99.90
2497;DHT22;1259;48.306;14.374;2023-07-28T12:49:06;24.90;99.90
2497;DHT22;1259;48.306;14.374;2023-07-28T12:51:32;24.90;99.90
2497;DHT22;1259;48.306;14.374;2023-07-28T12:54:01;24.90;99.90
2497;DHT22;1259;48.306;14.374;2023-07-28T12:56:27;25.00;99.90
2497;DHT22;1259;48.306;14.374;2023-07-28T12:58:54;24.80;99.90
2497;DHT22;1259;48.306;14.374;2023-07-28T13:01:21;24.90;99.90
2497;DHT22;1259;48.306;14.374;2023-07-28T13:03:47;25.00;99.90
2497;DHT22;1259;48.306;14.374;2023-07-28T13:06:14;25.00;99.90
2497;DHT22;1259;48.306;14.374;2023-07-28T13:08:41;25.00;99.90
2497;DHT22;1259;48.306;14.374;2023-07-28T13:11:09;24.90;99.90
2497;DHT22;1259;48.306;14.374;2023-07-28T13:13:35;25.10;99.90
2497;DHT22;1259;48.306;14.374;2023-07-28T13:16:02;25.20;99.90
2497;DHT22;1259;48.306;14.374;2023-07-28T13:18:29;25.30;99.90
2497;DHT22;1259;48.306;14.374;2023-07-28T13:20:56;25.50;99.90
2497;DHT22;1259;48.306;14.374;2023-07-28T13:23:23;25.60;99.90
2497;DHT22;1259;48.306;14.374;2023-07-28T13:25:49;25.50;99.50
2497;DHT22;1259;48.306;14.374;2023-07-28T13:28:18;25.30;98.90
2497;DHT22;1259;48.306;14.374;2023-07-28T13:30:45;25.30;99.00
2497;DHT22;1259;48.306;14.374;2023-07-28T13:33:11;25.20;98.90
2497;DHT22;1259;48.306;14.374;2023-07-28T13:35:38;25.10;99.20
2497;DHT22;1259;48.306;14.374;2023-07-28T13:38:05;25.10;98.60
2497;DHT22;1259;48.306;14.374;2023-07-28T13:40:31;25.10;99.80
2497;DHT22;1259;48.306;14.374;2023-07-28T13:42:58;25.00;99.30
2497;DHT22;1259;48.306;14.374;2023-07-28T13:45:26;24.90;99.10
2497;DHT22;1259;48.306;14.374;2023-07-28T13:47:53;25.00;99.60
2497;DHT22;1259;48.306;14.374;2023-07-28T13:50:20;25.10;99.20
2497;DHT22;1259;48.306;14.374;2023-07-28T13:52:47;25.30;99.90
2497;DHT22;1259;48.306;14.374;2023-07-28T13:55:14;25.30;99.40
2497;DHT22;1259;48.306;14.374;2023-07-28T13:57:40;25.10;99.30
2497;DHT22;1259;48.306;14.374;2023-07-28T14:00:07;25.10;98.40
2497;DHT22;1259;48.306;14.374;2023-07-28T14:02:36;25.00;98.90
2497;DHT22;1259;48.306;14.374;2023-07-28T14:05:03;25.00;97.70
2497;DHT22;1259;48.306;14.374;2023-07-28T14:07:30;24.80;97.60
2497;DHT22;1259;48.306;14.374;2023-07-28T14:09:57;24.70;97.70
2497;DHT22;1259;48.306;14.374;2023-07-28T14:12:24;24.80;98.10
2497;DHT22;1259;48.306;14.374;2023-07-28T14:14:50;24.70;97.60
2497;DHT22;1259;48.306;14.374;2023-07-28T14:17:17;24.70;97.90
2497;DHT22;1259;48.306;14.374;2023-07-28T14:19:45;24.70;98.30
2497;DHT22;1259;48.306;14.374;2023-07-28T14:22:12;24.50;98.90
2497;DHT22;1259;48.306;14.374;2023-07-28T14:24:38;24.60;99.60
2497;DHT22;1259;48.306;14.374;2023-07-28T14:27:05;24.50;99.30
2497;DHT22;1259;48.306;14.374;2023-07-28T14:29:32;24.30;98.90
2497;DHT22;1259;48.306;14.374;2023-07-28T14:31:58;24.00;99.00
2497;DHT22;1259;48.306;14.374;2023-07-28T14:34:25;24.10;99.90
2497;DHT22;1259;48.306;14.374;2023-07-28T14:36:53;23.90;99.90
2497;DHT22;1259;48.306;14.374;2023-07-28T14:39:20;23.80;99.90
2497;DHT22;1259;48.306;14.374;2023-07-28T14:41:47;23.60;99.90
2497;DHT22;1259;48.306;14.374;2023-07-28T14:44:13;23.60;99.90
2497;DHT22;1259;48.306;14.374;2023-07-28T14:46:41;23.50;99.90
2497;DHT22;1259;48.306;14.374;2023-07-28T14:49:08;23.30;99.90
2497;DHT22;1259;48.306;14.374;2023-07-28T14:51:35;23.10;99.90
2497;DHT22;1259;48.306;14.374;2023-07-28T14:54:03;23.00;99.90
2497;DHT22;1259;48.306;14.374;2023-07-28T14:56:29;23.10;99.90
2497;DHT22;1259;48.306;14.374;2023-07-28T14:58:56;23.00;99.90
2497;DHT22;1259;48.306;14.374;2023-07-28T15:01:23;23.10;99.90
2497;DHT22;1259;48.306;14.374;2023-07-28T15:03:50;23.10;99.90
2497;DHT22;1259;48.306;14.374;2023-07-28T15:06:17;23.00;99.90
2497;DHT22;1259;48.306;14.374;2023-07-28T15:08:43;23.00;99.90
2497;DHT22;1259;48.306;14.374;2023-07-28T15:11:11;23.00;99.90
2497;DHT22;1259;48.306;14.374;2023-07-28T15:13:39;22.90;99.90
2497;DHT22;1259;48.306;14.374;2023-07-28T15:16:06;22.90;99.90
2497;DHT22;1259;48.306;14.374;2023-07-28T15:18:32;22.90;99.90
2497;DHT22;1259;48.306;14.374;2023-07-28T15:20:59;22.90;99.90
2497;DHT22;1259;48.306;14.374;2023-07-28T15:23:26;23.00;99.90
2497;DHT22;1259;48.306;14.374;2023-07-28T15:25:52;23.00;99.90
2497;DHT22;1259;48.306;14.374;2023-07-28T15:28:23;23.00;99.90
2497;DHT22;1259;48.306;14.374;2023-07-28T15:30:50;22.90;99.90
2497;DHT22;1259;48.306;14.374;2023-07-28T15:33:18;23.00;99.90
2497;DHT22;1259;48.306;14.374;2023-07-28T15:35:45;23.00;99.90
2497;DHT22;1259;48.306;14.374;2023-07-28T15:38:13;23.00;99.90
2497;DHT22;1259;48.306;14.374;2023-07-28T15:40:39;23.00;99.90
2497;DHT22;1259;48.306;14.374;2023-07-28T15:43:06;23.00;99.90
2497;DHT22;1259;48.306;14.374;2023-07-28T15:45:34;23.00;99.90
2497;DHT22;1259;48.306;14.374;2023-07-28T15:48:01;23.00;99.90